Time;durP1;ratioP1;P1;durP2;ratioP2;P2;SDS_P1;SDS_P2;PMS_P1;PMS_P2;Temp;Humidity;BMP_temperature;BMP_pressure;BME280_temperature;BME280_humidity;BME280_pressure;Samples;Min_cycle;Max_cycle;Signal;HPM_P1;HPM_P2
2020/12/08 10:03:53;;;;;;;35.37;25.30;;;;;;;4.10;86.53;97679.84;5127094;27;20965;-81
2020/12/08 10:06:20;;;;;;;29.97;22.63;;;;;;;4.58;83.53;97686.72;5108056;27;39495;-79
2020/12/08 10:08:48;;;;;;;34.40;24.37;;;;;;;5.07;82.37;97674.22;5108078;27;43263;-77
2020/12/08 10:11:15;;;;;;;30.47;23.43;;;;;;;5.47;79.37;97675.31;5108379;27;44732;-78
2020/12/08 10:13:43;;;;;;;29.30;22.23;;;;;;;5.80;78.61;97667.16;5194109;22;42335;-78
2020/12/08 10:16:10;;;;;;;31.10;22.70;;;;;;;6.29;76.88;97661.47;5063615;28;40837;-79
2020/12/08 10:18:38;;;;;;;31.80;21.87;;;;;;;6.58;75.83;97642.00;5063787;28;42790;-77
2020/12/08 10:21:06;;;;;;;29.67;22.07;;;;;;;7.01;74.40;97660.19;5062560;28;42914;-81
2020/12/08 10:23:33;;;;;;;28.60;22.00;;;;;;;7.29;72.69;97665.28;5047059;28;43614;-80
2020/12/08 10:26:00;;;;;;;28.67;22.53;;;;;;;7.36;70.33;97656.00;5150659;22;39948;-79
2020/12/08 10:28:28;;;;;;;30.03;23.00;;;;;;;7.70;69.60;97669.47;5046579;28;41599;-79
2020/12/08 10:30:55;;;;;;;27.30;21.70;;;;;;;7.93;68.72;97653.72;5046870;28;44303;-79
2020/12/08 10:33:22;;;;;;;29.90;23.20;;;;;;;8.09;66.95;97661.38;5064267;28;42217;-78
2020/12/08 10:35:49;;;;;;;26.43;21.70;;;;;;;8.17;66.96;97679.28;5061952;28;40575;-81
2020/12/08 10:38:18;;;;;;;25.00;20.97;;;;;;;8.07;66.18;97663.28;5153560;22;42490;-79
2020/12/08 10:40:45;;;;;;;26.73;21.27;;;;;;;8.49;65.75;97663.81;5063541;28;42815;-80
2020/12/08 10:43:13;;;;;;;24.40;20.40;;;;;;;9.19;65.16;97669.97;5046294;28;43540;-80
2020/12/08 10:45:40;;;;;;;26.00;20.67;;;;;;;10.16;63.42;97682.66;5046868;28;41099;-81
2020/12/08 10:48:07;;;;;;;23.80;19.50;;;;;;;11.31;59.64;97660.88;5147597;22;42270;-81
2020/12/08 10:50:34;;;;;;;24.80;20.33;;;;;;;13.24;54.95;97699.50;5060997;28;42186;-79
2020/12/08 10:53:01;;;;;;;22.47;20.03;;;;;;;13.56;52.57;97729.31;5046586;28;43294;-81
2020/12/08 10:55:29;;;;;;;22.87;20.23;;;;;;;13.60;50.49;97696.09;5080125;28;39691;-81
2020/12/08 10:57:56;;;;;;;23.33;19.47;;;;;;;13.49;50.94;97719.38;5064101;28;42176;-79
2020/12/08 11:00:24;;;;;;;25.00;19.93;;;;;;;12.99;51.56;97727.47;5158853;22;42782;-80
2020/12/08 11:02:51;;;;;;;22.77;20.20;;;;;;;12.63;51.99;97725.44;5083722;28;41667;-79
2020/12/08 11:05:18;;;;;;;21.23;19.03;;;;;;;12.39;52.52;97708.03;5065355;28;41643;-81
2020/12/08 11:07:45;;;;;;;23.93;19.53;;;;;;;12.57;53.75;97694.97;5067181;28;42995;-82
2020/12/08 11:10:13;;;;;;;22.73;20.20;;;;;;;13.40;52.73;97698.94;5066442;28;43691;-78
2020/12/08 11:12:41;;;;;;;23.40;19.50;;;;;;;14.23;48.47;97728.28;5136785;22;42611;-81
2020/12/08 11:15:08;;;;;;;21.70;19.40;;;;;;;15.12;46.47;97728.53;5028776;28;40865;-80
2020/12/08 11:17:36;;;;;;;22.20;18.83;;;;;;;14.96;47.01;97720.38;5035662;28;42408;-78
2020/12/08 11:20:04;;;;;;;30.77;26.77;;;;;;;15.24;44.76;97731.81;5028922;28;42944;-80
2020/12/08 11:22:32;;;;;;;21.27;19.00;;;;;;;16.95;43.49;97712.34;5028865;28;41840;-82
2020/12/08 11:24:59;;;;;;;20.70;18.47;;;;;;;18.60;39.57;97752.97;5152757;22;40705;-79
2020/12/08 11:27:27;;;;;;;19.47;17.43;;;;;;;18.48;38.23;97758.84;5051630;28;43325;-81
2020/12/08 11:29:55;;;;;;;18.63;16.67;;;;;;;17.74;40.67;97727.84;5051841;28;43455;-81
2020/12/08 11:32:22;;;;;;;20.20;18.03;;;;;;;16.63;41.18;97721.94;5052298;28;43543;-80
2020/12/08 11:34:50;;;;;;;22.30;19.53;;;;;;;15.82;42.34;97700.13;5155937;22;39776;-79
2020/12/08 11:37:18;;;;;;;21.87;18.90;;;;;;;15.78;42.80;97704.09;5048874;28;41514;-80
2020/12/08 11:39:45;;;;;;;20.37;18.27;;;;;;;15.82;43.18;97702.81;5050792;28;42614;-79
2020/12/08 11:42:14;;;;;;;18.93;16.93;;;;;;;16.13;42.21;97682.63;5048311;28;42018;-79
2020/12/08 11:44:43;;;;;;;20.47;18.47;;;;;;;16.75;42.04;97719.81;5051154;28;39767;-80
2020/12/08 11:47:11;;;;;;;20.03;17.47;;;;;;;18.11;39.71;97735.31;5110490;22;42472;-81
2020/12/08 11:49:40;;;;;;;19.07;17.10;;;;;;;19.51;38.17;97735.41;5010216;28;43853;-80
2020/12/08 11:52:10;;;;;;;19.23;17.23;;;;;;;20.08;35.88;97747.31;5027579;28;42007;-80
2020/12/08 11:54:37;;;;;;;21.40;17.83;;;;;;;20.41;34.57;97755.91;5044707;28;40842;-78
2020/12/08 11:57:04;;;;;;;18.07;16.27;;;;;;;20.36;34.88;97736.81;5027784;28;42384;-80
2020/12/08 11:59:32;;;;;;;19.90;17.97;;;;;;;20.39;34.29;97757.97;5151559;22;43349;-78
2020/12/08 12:01:59;;;;;;;18.00;16.20;;;;;;;19.44;34.75;97745.97;5070033;28;42653;-79
2020/12/08 12:04:27;;;;;;;19.97;17.87;;;;;;;18.44;36.23;97709.25;5069563;28;40728;-79
2020/12/08 12:06:54;;;;;;;18.43;16.60;;;;;;;18.21;37.72;97710.00;5055232;28;43167;-81
2020/12/08 12:12:20;;;;;;;18.77;16.87;;;;;;;20.66;34.64;97736.81;4967543;28;41604;-79
2020/12/08 12:14:47;;;;;;;18.37;16.23;;;;;;;21.97;31.92;97753.63;4953389;28;41458;-80
2020/12/08 12:17:14;;;;;;;17.80;15.83;;;;;;;22.51;31.63;97753.81;4969425;28;41777;-78
2020/12/08 12:19:42;;;;;;;18.03;16.13;;;;;;;21.78;32.22;97747.00;4953181;28;43727;-79
2020/12/08 12:22:10;;;;;;;17.97;16.17;;;;;;;21.23;32.21;97754.94;5085657;22;41666;-78
2020/12/08 12:24:37;;;;;;;18.00;16.30;;;;;;;20.43;32.55;97753.03;5011004;28;40007;-78
2020/12/08 12:27:04;;;;;;;18.20;16.40;;;;;;;19.76;33.61;97736.88;5010386;28;41987;-78
2020/12/08 12:29:32;;;;;;;17.63;15.63;;;;;;;19.72;34.45;97741.78;5011690;28;42587;-80
2020/12/08 12:31:59;;;;;;;17.30;15.50;;;;;;;19.80;34.22;97729.28;4975889;28;43410;-79
2020/12/08 12:34:26;;;;;;;17.20;15.50;;;;;;;20.10;33.70;97736.41;5069511;23;40896;-80
2020/12/08 12:36:55;;;;;;;17.37;15.57;;;;;;;20.23;33.66;97727.69;4975891;28;41464;-79
2020/12/08 12:39:22;;;;;;;17.07;15.33;;;;;;;20.10;33.38;97731.03;4992009;28;43515;-79
2020/12/08 12:41:49;;;;;;;16.93;15.23;;;;;;;19.36;34.57;97711.16;4974939;28;42612;-79
2020/12/08 12:47:17;;;;;;;16.60;14.87;;;;;;;19.14;34.48;97717.34;4966401;28;41925;-79
2020/12/08 12:49:44;;;;;;;15.57;13.97;;;;;;;18.62;35.30;97688.44;4952479;28;42738;-80
2020/12/08 12:52:15;;;;;;;16.53;14.83;;;;;;;18.46;34.55;97701.88;4951671;28;42722;-81
2020/12/08 12:54:43;;;;;;;15.03;13.43;;;;;;;18.25;36.00;97679.19;4936487;28;42887;-80
2020/12/08 12:57:10;;;;;;;15.10;13.50;;;;;;;18.41;34.81;97715.00;5044585;22;42686;-81
2020/12/08 12:59:37;;;;;;;15.87;14.27;;;;;;;18.32;35.51;97690.03;4968227;28;44434;-79
2020/12/08 13:02:06;;;;;;;16.97;14.50;;;;;;;18.10;34.83;97702.34;4953143;28;42831;-80
2020/12/08 13:07:25;;;;;;;14.87;13.20;;;;;;;16.36;36.66;97690.06;4964617;28;41536;-81
2020/12/08 13:09:53;;;;;;;14.80;12.83;;;;;;;15.58;37.94;97686.63;5092135;22;42729;-78
2020/12/08 13:30:13;;;;;;;18.97;14.87;;;;;;;11.77;47.15;97632.13;5008323;28;20618;-80
2020/12/08 13:33:12;;;;;;;17.73;13.87;;;;;;;11.09;47.61;97554.06;5162057;22;42465;-79
2020/12/08 13:40:11;;;;;;;16.13;12.73;;;;;;;10.86;49.20;97618.72;4995630;28;43102;-81
2020/12/08 13:46:12;;;;;;;16.77;14.50;;;;;;;10.36;50.13;97591.97;5027678;28;20663;-80
2020/12/08 13:50:14;;;;;;;;;;;;;;;;;;;;;
2020/12/08 14:16:51;;;;;;;14.93;12.33;;;;;;;8.29;54.81;97521.00;4991938;28;20241;-80
2020/12/08 14:26:32;;;;;;;17.60;12.93;;;;;;;8.16;56.38;97591.44;4989646;28;43452;-78
2020/12/08 14:58:27;;;;;;;12.83;10.00;;;;;;;6.68;60.76;97600.97;4975527;28;40337;-80
2020/12/08 15:17:11;;;;;;;16.57;12.60;;;;;;;5.84;65.33;97597.72;5188811;22;20237;-80
2020/12/08 15:48:25;;;;;;;18.97;11.97;;;;;;;4.73;65.37;97664.88;3229290;23;20546;-79
2020/12/08 15:50:56;;;;;;;15.37;11.53;;;;;;;4.51;65.39;97639.06;4923900;23;39569;-76
2020/12/08 15:53:23;;;;;;;14.50;10.97;;;;;;;4.46;65.45;97646.34;4838686;29;42915;-77
2020/12/08 15:55:50;;;;;;;17.73;11.30;;;;;;;4.50;65.75;97660.13;4840840;29;43588;-77
2020/12/08 15:58:18;;;;;;;15.63;11.93;;;;;;;4.43;65.66;97664.88;4841004;29;42403;-77
2020/12/08 16:00:45;;;;;;;14.30;11.07;;;;;;;4.35;65.81;97653.97;4856425;29;40604;-77
2020/12/08 16:03:12;;;;;;;14.37;10.93;;;;;;;4.29;65.79;97659.56;4954343;23;42512;-77
2020/12/08 16:05:39;;;;;;;21.50;13.53;;;;;;;4.19;65.73;97656.63;4841351;29;43644;-77
2020/12/08 16:08:07;;;;;;;17.97;12.47;;;;;;;4.14;66.37;97649.94;4867011;29;42231;-77
2020/12/08 16:10:34;;;;;;;17.63;12.77;;;;;;;4.04;66.42;97649.63;4857976;29;40026;-77
2020/12/08 16:13:01;;;;;;;15.60;12.47;;;;;;;4.00;66.22;97657.72;4857902;29;43406;-77
2020/12/08 16:15:29;;;;;;;17.83;13.17;;;;;;;3.93;66.84;97651.97;4940640;23;43081;-76
2020/12/08 16:17:56;;;;;;;17.53;13.10;;;;;;;3.88;67.02;97664.47;4828887;29;44274;-77
2020/12/08 16:20:27;;;;;;;17.73;14.17;;;;;;;3.77;67.25;97651.97;4847748;29;40312;-78
2020/12/08 16:22:55;;;;;;;23.73;16.40;;;;;;;3.68;67.78;97636.78;4824673;29;41921;-77
2020/12/08 16:25:24;;;;;;;18.27;12.37;;;;;;;3.66;68.00;97645.63;4849263;29;43495;-77
2020/12/08 16:27:52;;;;;;;17.20;12.97;;;;;;;3.72;68.12;97663.59;4940746;23;42742;-77
2020/12/08 16:30:19;;;;;;;18.27;13.60;;;;;;;3.67;68.46;97666.50;4912378;23;41871;-77
2020/12/08 16:32:46;;;;;;;21.27;14.00;;;;;;;3.61;68.46;97656.34;4871729;29;41757;-78
2020/12/08 16:35:15;;;;;;;16.53;11.80;;;;;;;3.60;68.79;97659.88;4862058;29;42687;-78
2020/12/08 16:37:43;;;;;;;18.37;12.10;;;;;;;3.56;69.94;97659.22;4856436;29;42345;-79
2020/12/08 16:40:12;;;;;;;15.17;12.07;;;;;;;3.55;69.94;97661.91;4907827;23;40531;-79
2020/12/08 16:42:42;;;;;;;16.40;12.53;;;;;;;3.51;70.15;97666.47;4827339;29;41958;-77
2020/12/08 16:45:09;;;;;;;14.77;11.30;;;;;;;3.49;70.30;97667.47;4827840;29;43388;-81
2020/12/08 16:47:37;;;;;;;17.07;12.77;;;;;;;3.47;70.84;97669.31;4827265;29;42956;-78
2020/12/08 16:50:07;;;;;;;14.87;11.20;;;;;;;3.43;70.27;97665.19;4906864;23;40290;-77
2020/12/08 16:52:35;;;;;;;16.43;13.80;;;;;;;3.41;70.23;97680.13;4852115;29;41604;-78
2020/12/08 16:55:03;;;;;;;18.27;13.07;;;;;;;3.38;70.21;97685.50;4863088;29;43423;-78
2020/12/08 16:57:30;;;;;;;14.47;10.93;;;;;;;3.37;70.35;97681.19;4862029;29;42803;-77
2020/12/08 16:59:58;;;;;;;16.53;11.47;;;;;;;3.22;69.83;97665.38;4870282;29;39918;-77
2020/12/08 17:02:25;;;;;;;14.03;11.60;;;;;;;3.28;70.01;97679.06;4936982;23;42393;-77
2020/12/08 17:04:52;;;;;;;16.60;11.40;;;;;;;3.23;70.19;97682.75;4834406;29;44328;-78
2020/12/08 17:07:19;;;;;;;17.53;12.30;;;;;;;3.25;70.72;97696.59;4854514;29;42123;-78
2020/12/08 17:09:46;;;;;;;17.60;13.20;;;;;;;3.22;70.95;97691.53;4854503;29;41990;-77
2020/12/08 17:12:17;;;;;;;13.67;11.00;;;;;;;3.11;71.52;97678.16;4846093;29;41636;-77
2020/12/08 17:14:44;;;;;;;19.80;12.93;;;;;;;3.18;71.80;97695.25;4944235;23;42954;-77
2020/12/08 17:17:12;;;;;;;18.13;12.97;;;;;;;3.19;72.51;97706.56;4873205;29;42118;-77
2020/12/08 17:19:39;;;;;;;21.83;14.63;;;;;;;3.15;72.81;97708.47;4858678;29;39940;-77
2020/12/08 17:22:06;;;;;;;17.07;13.00;;;;;;;3.06;72.26;97700.25;4866812;29;42928;-78
2020/12/08 17:24:55;;;;;;;16.10;12.70;;;;;;;3.13;72.63;97717.31;4939691;23;42776;31
2020/12/08 17:27:23;;;;;;;17.07;13.07;;;;;;;3.10;72.16;97718.31;4837530;29;42514;-77
2020/12/08 17:29:50;;;;;;;18.63;14.13;;;;;;;2.97;72.12;97708.56;4855265;29;40632;-80
2020/12/08 17:32:18;;;;;;;17.53;13.10;;;;;;;3.01;72.14;97718.78;4870038;29;42053;-80
2020/12/08 17:34:45;;;;;;;19.03;14.00;;;;;;;3.02;72.16;97720.47;4853574;29;42551;-78
2020/12/08 17:37:15;;;;;;;16.87;13.10;;;;;;;2.99;72.35;97725.84;4931476;23;41608;-77
2020/12/08 17:39:44;;;;;;;16.87;12.17;;;;;;;2.70;72.18;97688.13;4854358;29;40001;-77
2020/12/08 17:42:12;;;;;;;16.57;12.83;;;;;;;2.92;71.97;97714.03;4852591;29;42068;-77
2020/12/08 17:44:41;;;;;;;17.23;14.53;;;;;;;2.93;72.14;97726.19;4844662;29;42817;-76
2020/12/08 17:47:08;;;;;;;18.50;14.10;;;;;;;2.91;72.00;97724.56;4851696;29;42219;-78
2020/12/08 17:49:37;;;;;;;16.33;13.70;;;;;;;2.88;72.28;97715.09;4931244;23;40797;-77
2020/12/08 17:52:04;;;;;;;13.90;11.37;;;;;;;2.86;72.48;97715.16;4842467;29;42318;-77
2020/12/08 17:54:31;;;;;;;17.13;11.80;;;;;;;2.80;72.44;97704.19;4828616;29;43267;-77
2020/12/08 17:56:59;;;;;;;19.00;14.07;;;;;;;2.88;72.36;97718.56;4834609;29;43442;-77
2020/12/08 17:59:36;;;;;;;16.43;12.60;;;;;;;2.89;73.12;97727.25;4856144;23;41745;31
2020/12/08 18:02:03;;;;;;;17.53;12.73;;;;;;;2.88;72.82;97722.94;4851949;29;41418;-76
2020/12/08 18:04:31;;;;;;;16.20;12.40;;;;;;;2.84;72.65;97716.19;4855230;29;43485;-77
2020/12/08 18:06:59;;;;;;;14.67;11.30;;;;;;;2.86;73.18;97715.16;4845177;29;42812;-77
2020/12/08 18:09:27;;;;;;;22.13;14.33;;;;;;;2.90;72.96;97721.09;4851545;29;39778;-76
2020/12/08 18:11:54;;;;;;;15.90;12.90;;;;;;;2.95;72.82;97728.72;4931242;23;41839;-76
2020/12/08 18:14:21;;;;;;;14.47;11.33;;;;;;;2.79;72.67;97708.56;4844871;29;43781;-76
2020/12/08 18:16:49;;;;;;;14.40;11.07;;;;;;;2.96;73.09;97731.25;4844614;29;42993;-77
2020/12/08 18:19:16;;;;;;;19.97;15.43;;;;;;;2.97;72.85;97732.91;4845077;29;39760;-77
2020/12/08 18:21:43;;;;;;;22.23;15.30;;;;;;;2.97;72.92;97738.16;4828665;29;43258;-76
2020/12/08 18:24:12;;;;;;;19.93;14.47;;;;;;;2.97;73.34;97727.69;4940576;23;42583;-77
2020/12/08 18:26:39;;;;;;;19.10;13.80;;;;;;;2.99;72.97;97731.09;4865509;29;41888;-77
2020/12/08 18:29:06;;;;;;;16.50;13.80;;;;;;;2.84;72.77;97710.97;4864737;29;40609;-77
2020/12/08 18:31:33;;;;;;;18.50;13.70;;;;;;;2.93;73.72;97718.34;4867807;29;41636;-77
2020/12/08 18:34:02;;;;;;;19.67;14.83;;;;;;;2.96;73.14;97740.88;4867962;29;42811;-77
2020/12/08 18:36:29;;;;;;;19.63;14.10;;;;;;;2.96;73.12;97736.50;4934924;23;42139;-76
2020/12/08 18:38:56;;;;;;;20.57;14.50;;;;;;;3.01;72.60;97746.69;4830389;29;41298;-76
2020/12/08 18:41:25;;;;;;;23.20;17.20;;;;;;;3.00;72.72;97748.47;4847154;29;42870;-77
2020/12/08 18:43:52;;;;;;;21.20;15.43;;;;;;;2.97;72.81;97742.56;4846778;29;43226;-76
2020/12/08 18:46:19;;;;;;;20.53;14.83;;;;;;;3.00;72.54;97748.47;4933676;23;42210;-77
2020/12/08 18:48:46;;;;;;;20.97;14.33;;;;;;;2.97;72.64;97747.81;4832563;29;38449;-76
2020/12/08 18:51:13;;;;;;;20.70;14.53;;;;;;;3.00;72.97;97745.84;4831435;29;41648;-77
2020/12/08 18:53:41;;;;;;;20.57;15.53;;;;;;;2.89;72.97;97729.84;4829288;29;42624;-78
